sensor_id;sensor_type;location;lat;lon;timestamp;P1;durP1;ratioP1;P2;durP2;ratioP2
43841;SDS011;29495;49.970;20.842;2022-12-18T00:02:17;84.03;;;31.10;;
43841;SDS011;29495;49.970;20.842;2022-12-18T00:04:44;94.30;;;30.60;;
43841;SDS011;29495;49.970;20.842;2022-12-18T00:07:12;82.10;;;27.33;;
43841;SDS011;29495;49.970;20.842;2022-12-18T00:09:41;84.97;;;29.03;;
43841;SDS011;29495;49.970;20.842;2022-12-18T00:12:23;96.50;;;28.70;;
43841;SDS011;29495;49.970;20.842;2022-12-18T00:14:52;98.18;;;34.10;;
43841;SDS011;29495;49.970;20.842;2022-12-18T00:17:34;90.35;;;29.50;;
43841;SDS011;29495;49.970;20.842;2022-12-18T00:20:10;87.13;;;29.58;;
43841;SDS011;29495;49.970;20.842;2022-12-18T00:22:58;96.55;;;30.17;;
43841;SDS011;29495;49.970;20.842;2022-12-18T00:25:24;89.05;;;30.55;;
43841;SDS011;29495;49.970;20.842;2022-12-18T00:31:19;85.32;;;29.40;;
43841;SDS011;29495;49.970;20.842;2022-12-18T00:37:24;84.20;;;27.20;;
43841;SDS011;29495;49.970;20.842;2022-12-18T00:39:58;87.47;;;28.20;;
43841;SDS011;29495;49.970;20.842;2022-12-18T02:32:11;47.05;;;18.58;;
43841;SDS011;29495;49.970;20.842;2022-12-18T02:40:17;47.40;;;18.02;;
43841;SDS011;29495;49.970;20.842;2022-12-18T04:55:42;33.05;;;14.07;;
43841;SDS011;29495;49.970;20.842;2022-12-18T08:51:46;61.55;;;22.30;;
43841;SDS011;29495;49.970;20.842;2022-12-18T08:54:37;52.75;;;21.25;;
43841;SDS011;29495;49.970;20.842;2022-12-18T09:11:47;63.15;;;22.10;;
43841;SDS011;29495;49.970;20.842;2022-12-18T09:14:32;62.63;;;23.13;;
43841;SDS011;29495;49.970;20.842;2022-12-18T09:40:56;61.42;;;23.73;;
43841;SDS011;29495;49.970;20.842;2022-12-18T09:43:40;65.07;;;25.08;;
43841;SDS011;29495;49.970;20.842;2022-12-18T09:46:14;60.45;;;24.23;;
43841;SDS011;29495;49.970;20.842;2022-12-18T09:48:52;60.70;;;24.15;;
43841;SDS011;29495;49.970;20.842;2022-12-18T09:51:26;59.00;;;22.10;;
43841;SDS011;29495;49.970;20.842;2022-12-18T09:54:25;63.15;;;24.20;;
43841;SDS011;29495;49.970;20.842;2022-12-18T09:57:16;59.55;;;24.90;;
43841;SDS011;29495;49.970;20.842;2022-12-18T10:03:11;65.03;;;23.95;;
43841;SDS011;29495;49.970;20.842;2022-12-18T10:06:18;62.40;;;25.10;;
43841;SDS011;29495;49.970;20.842;2022-12-18T10:20:35;65.22;;;24.85;;
43841;SDS011;29495;49.970;20.842;2022-12-18T10:35:26;62.97;;;22.90;;
43841;SDS011;29495;49.970;20.842;2022-12-18T10:38:03;57.03;;;21.55;;
43841;SDS011;29495;49.970;20.842;2022-12-18T10:41:45;58.40;;;22.00;;
43841;SDS011;29495;49.970;20.842;2022-12-18T10:44:14;51.03;;;20.83;;
43841;SDS011;29495;49.970;20.842;2022-12-18T10:47:06;55.35;;;21.80;;
43841;SDS011;29495;49.970;20.842;2022-12-18T10:49:42;49.80;;;19.35;;
43841;SDS011;29495;49.970;20.842;2022-12-18T10:52:15;51.97;;;21.75;;
43841;SDS011;29495;49.970;20.842;2022-12-18T10:59:58;45.10;;;19.35;;
43841;SDS011;29495;49.970;20.842;2022-12-18T11:02:34;41.90;;;16.63;;
43841;SDS011;29495;49.970;20.842;2022-12-18T11:05:02;41.70;;;17.10;;
43841;SDS011;29495;49.970;20.842;2022-12-18T11:07:48;44.47;;;18.55;;
43841;SDS011;29495;49.970;20.842;2022-12-18T11:10:16;45.47;;;16.77;;
43841;SDS011;29495;49.970;20.842;2022-12-18T11:12:43;41.47;;;16.75;;
43841;SDS011;29495;49.970;20.842;2022-12-18T11:15:29;40.45;;;15.07;;
43841;SDS011;29495;49.970;20.842;2022-12-18T13:31:09;34.03;;;14.73;;
43841;SDS011;29495;49.970;20.842;2022-12-18T13:34:20;41.10;;;15.57;;
43841;SDS011;29495;49.970;20.842;2022-12-18T15:41:48;43.13;;;14.10;;
43841;SDS011;29495;49.970;20.842;2022-12-18T15:44:53;32.67;;;12.63;;
43841;SDS011;29495;49.970;20.842;2022-12-18T15:47:31;34.00;;;12.45;;
43841;SDS011;29495;49.970;20.842;2022-12-18T15:50:31;32.55;;;12.60;;
43841;SDS011;29495;49.970;20.842;2022-12-18T15:53:13;33.58;;;12.25;;
43841;SDS011;29495;49.970;20.842;2022-12-18T15:59:34;39.80;;;15.75;;
43841;SDS011;29495;49.970;20.842;2022-12-18T16:02:19;30.83;;;12.32;;
43841;SDS011;29495;49.970;20.842;2022-12-18T16:04:57;33.45;;;14.20;;
43841;SDS011;29495;49.970;20.842;2022-12-18T16:08:03;28.75;;;11.52;;
43841;SDS011;29495;49.970;20.842;2022-12-18T16:10:53;33.55;;;11.80;;
43841;SDS011;29495;49.970;20.842;2022-12-18T16:13:49;33.85;;;12.68;;
43841;SDS011;29495;49.970;20.842;2022-12-18T16:16:43;31.92;;;12.98;;
43841;SDS011;29495;49.970;20.842;2022-12-18T16:20:14;29.05;;;13.40;;
43841;SDS011;29495;49.970;20.842;2022-12-18T16:22:58;38.47;;;14.68;;
43841;SDS011;29495;49.970;20.842;2022-12-18T16:26:23;43.22;;;15.38;;
43841;SDS011;29495;49.970;20.842;2022-12-18T16:36:49;42.70;;;16.77;;
43841;SDS011;29495;49.970;20.842;2022-12-18T16:43:44;35.78;;;14.57;;
43841;SDS011;29495;49.970;20.842;2022-12-18T16:53:39;38.28;;;14.05;;
43841;SDS011;29495;49.970;20.842;2022-12-18T16:56:28;39.05;;;14.57;;
43841;SDS011;29495;49.970;20.842;2022-12-18T16:59:20;41.95;;;15.70;;
43841;SDS011;29495;49.970;20.842;2022-12-18T17:02:15;41.63;;;16.25;;
43841;SDS011;29495;49.970;20.842;2022-12-18T17:04:57;51.13;;;21.55;;
43841;SDS011;29495;49.970;20.842;2022-12-18T17:08:18;56.28;;;20.33;;
43841;SDS011;29495;49.970;20.842;2022-12-18T17:10:52;50.42;;;18.55;;
43841;SDS011;29495;49.970;20.842;2022-12-18T17:13:56;54.78;;;19.02;;
43841;SDS011;29495;49.970;20.842;2022-12-18T17:21:14;43.95;;;16.23;;
43841;SDS011;29495;49.970;20.842;2022-12-18T17:24:08;49.70;;;18.30;;
43841;SDS011;29495;49.970;20.842;2022-12-18T17:26:39;43.88;;;16.75;;
43841;SDS011;29495;49.970;20.842;2022-12-18T17:29:22;49.25;;;19.77;;
43841;SDS011;29495;49.970;20.842;2022-12-18T17:32:13;59.58;;;23.88;;
43841;SDS011;29495;49.970;20.842;2022-12-18T17:34:45;57.80;;;23.40;;
43841;SDS011;29495;49.970;20.842;2022-12-18T17:37:54;64.38;;;22.83;;
43841;SDS011;29495;49.970;20.842;2022-12-18T17:40:30;58.33;;;21.90;;
43841;SDS011;29495;49.970;20.842;2022-12-18T17:43:13;55.47;;;21.05;;
43841;SDS011;29495;49.970;20.842;2022-12-18T17:46:23;44.90;;;19.02;;
43841;SDS011;29495;49.970;20.842;2022-12-18T17:48:58;46.78;;;18.80;;
43841;SDS011;29495;49.970;20.842;2022-12-18T17:52:05;43.85;;;17.75;;
43841;SDS011;29495;49.970;20.842;2022-12-18T18:01:00;56.67;;;20.73;;
43841;SDS011;29495;49.970;20.842;2022-12-18T18:03:56;47.53;;;19.65;;
43841;SDS011;29495;49.970;20.842;2022-12-18T18:06:37;56.03;;;19.27;;
43841;SDS011;29495;49.970;20.842;2022-12-18T18:09:09;42.63;;;18.58;;
43841;SDS011;29495;49.970;20.842;2022-12-18T18:11:47;46.13;;;18.67;;
43841;SDS011;29495;49.970;20.842;2022-12-18T18:14:34;53.85;;;19.05;;
43841;SDS011;29495;49.970;20.842;2022-12-18T18:17:00;53.00;;;21.20;;
43841;SDS011;29495;49.970;20.842;2022-12-18T18:19:51;63.78;;;23.55;;
43841;SDS011;29495;49.970;20.842;2022-12-18T18:22:31;71.57;;;24.02;;
43841;SDS011;29495;49.970;20.842;2022-12-18T18:25:00;100.00;;;30.08;;
43841;SDS011;29495;49.970;20.842;2022-12-18T18:27:38;69.47;;;23.02;;
43841;SDS011;29495;49.970;20.842;2022-12-18T18:30:27;52.65;;;20.35;;
43841;SDS011;29495;49.970;20.842;2022-12-18T18:33:09;58.20;;;20.55;;
43841;SDS011;29495;49.970;20.842;2022-12-18T18:35:53;59.00;;;21.55;;
43841;SDS011;29495;49.970;20.842;2022-12-18T18:38:34;63.85;;;23.67;;
43841;SDS011;29495;49.970;20.842;2022-12-18T18:41:41;54.13;;;20.55;;
43841;SDS011;29495;49.970;20.842;2022-12-18T18:51:15;76.20;;;25.67;;
43841;SDS011;29495;49.970;20.842;2022-12-18T18:57:26;83.70;;;28.55;;
43841;SDS011;29495;49.970;20.842;2022-12-18T19:00:09;71.15;;;24.42;;
43841;SDS011;29495;49.970;20.842;2022-12-18T19:05:43;65.35;;;21.00;;
43841;SDS011;29495;49.970;20.842;2022-12-18T19:08:57;50.65;;;19.77;;
43841;SDS011;29495;49.970;20.842;2022-12-18T19:13:02;47.20;;;18.42;;
43841;SDS011;29495;49.970;20.842;2022-12-18T19:16:07;40.33;;;16.60;;
43841;SDS011;29495;49.970;20.842;2022-12-18T19:18:54;57.88;;;19.80;;
43841;SDS011;29495;49.970;20.842;2022-12-18T19:21:50;53.25;;;19.17;;
43841;SDS011;29495;49.970;20.842;2022-12-18T19:24:19;55.45;;;20.98;;
43841;SDS011;29495;49.970;20.842;2022-12-18T19:26:48;59.50;;;24.98;;
43841;SDS011;29495;49.970;20.842;2022-12-18T19:29:38;65.70;;;23.27;;
43841;SDS011;29495;49.970;20.842;2022-12-18T19:32:48;65.17;;;24.17;;
43841;SDS011;29495;49.970;20.842;2022-12-18T19:35:55;61.28;;;23.17;;
43841;SDS011;29495;49.970;20.842;2022-12-18T19:38:49;63.53;;;22.60;;
43841;SDS011;29495;49.970;20.842;2022-12-18T19:41:38;67.00;;;23.13;;
43841;SDS011;29495;49.970;20.842;2022-12-18T19:44:27;71.13;;;28.15;;
43841;SDS011;29495;49.970;20.842;2022-12-18T19:47:19;55.28;;;21.92;;
43841;SDS011;29495;49.970;20.842;2022-12-18T19:49:58;62.08;;;23.33;;
43841;SDS011;29495;49.970;20.842;2022-12-18T19:55:31;51.38;;;20.48;;
43841;SDS011;29495;49.970;20.842;2022-12-18T19:58:30;58.10;;;23.23;;
43841;SDS011;29495;49.970;20.842;2022-12-18T20:01:22;53.50;;;20.58;;
43841;SDS011;29495;49.970;20.842;2022-12-18T20:04:14;49.38;;;18.05;;
43841;SDS011;29495;49.970;20.842;2022-12-18T20:07:03;51.97;;;18.67;;
43841;SDS011;29495;49.970;20.842;2022-12-18T20:09:37;53.85;;;19.50;;
43841;SDS011;29495;49.970;20.842;2022-12-18T20:16:13;55.60;;;21.23;;
43841;SDS011;29495;49.970;20.842;2022-12-18T20:19:45;54.88;;;21.58;;
43841;SDS011;29495;49.970;20.842;2022-12-18T20:22:20;57.90;;;22.45;;
43841;SDS011;29495;49.970;20.842;2022-12-18T20:25:03;62.50;;;21.65;;
43841;SDS011;29495;49.970;20.842;2022-12-18T20:27:43;64.22;;;23.83;;
43841;SDS011;29495;49.970;20.842;2022-12-18T20:30:31;59.10;;;22.77;;
43841;SDS011;29495;49.970;20.842;2022-12-18T20:33:40;63.72;;;23.35;;
43841;SDS011;29495;49.970;20.842;2022-12-18T20:37:20;69.05;;;24.92;;
43841;SDS011;29495;49.970;20.842;2022-12-18T20:39:50;63.90;;;24.38;;
43841;SDS011;29495;49.970;20.842;2022-12-18T20:49:23;78.63;;;29.60;;
43841;SDS011;29495;49.970;20.842;2022-12-18T20:52:03;78.05;;;30.42;;
43841;SDS011;29495;49.970;20.842;2022-12-18T20:55:12;83.32;;;32.17;;
43841;SDS011;29495;49.970;20.842;2022-12-18T20:58:29;83.60;;;32.30;;
